Time;durP1;ratioP1;P1;durP2;ratioP2;P2;SDS_P1;SDS_P2;PMS_P1;PMS_P2;Temp;Humidity;BMP_temperature;BMP_pressure;BME280_temperature;BME280_humidity;BME280_pressure;Samples;Min_cycle;Max_cycle;Signal;HPM_P1;HPM_P2
2022/08/02 03:03:16;;;;;;;8.05;3.55;;;13.20;99.90;;;;;;4977085;28;20051;-87
2022/08/02 03:05:42;;;;;;;13.32;4.18;;;13.20;99.90;;;;;;4945352;29;20054;-88
2022/08/02 03:08:07;;;;;;;12.55;4.55;;;13.20;99.90;;;;;;4943829;29;20039;-88
2022/08/02 03:10:33;;;;;;;11.43;3.92;;;13.20;99.90;;;;;;4945264;28;20106;-88
2022/08/02 03:13:00;;;;;;;7.40;4.38;;;13.10;99.90;;;;;;4958285;29;20047;-87
2022/08/02 03:15:29;;;;;;;8.95;4.13;;;13.10;99.90;;;;;;4959485;29;20438;-92
2022/08/02 03:17:55;;;;;;;14.55;3.75;;;13.10;99.90;;;;;;4944407;29;20446;-91
2022/08/02 03:20:21;;;;;;;7.80;3.92;;;13.10;99.90;;;;;;4959092;29;20051;-87
2022/08/02 03:22:48;;;;;;;11.50;4.00;;;13.10;99.90;;;;;;4962314;29;20110;-91
2022/08/02 03:25:14;;;;;;;9.95;4.00;;;13.10;99.90;;;;;;4961433;28;20038;-89
2022/08/02 03:27:40;;;;;;;10.38;3.70;;;13.10;99.90;;;;;;4961531;29;20054;-91
2022/08/02 03:30:09;;;;;;;13.05;4.10;;;13.10;99.90;;;;;;4960910;28;20035;-92
2022/08/02 03:32:36;;;;;;;9.55;3.95;;;13.10;99.90;;;;;;4961805;29;20075;-88
2022/08/02 03:35:03;;;;;;;13.27;3.80;;;13.10;99.90;;;;;;4945350;29;20047;-89
2022/08/02 03:37:31;;;;;;;8.98;4.25;;;13.10;99.90;;;;;;4960990;29;20049;-85
2022/08/02 03:39:57;;;;;;;10.68;5.05;;;13.10;99.90;;;;;;4961546;29;20118;-87
2022/08/02 03:42:25;;;;;;;9.48;4.10;;;13.20;99.90;;;;;;4963718;29;20475;-86
2022/08/02 03:44:52;;;;;;;8.32;4.38;;;13.10;99.90;;;;;;4949861;29;20078;-86
2022/08/02 03:47:19;;;;;;;13.88;4.45;;;13.20;99.90;;;;;;4947161;28;20039;-86
2022/08/02 03:49:45;;;;;;;13.05;4.40;;;13.10;99.90;;;;;;4944477;29;20094;-90
2022/08/02 03:52:11;;;;;;;10.57;4.25;;;13.10;99.90;;;;;;4956127;29;20475;-87
2022/08/02 03:54:38;;;;;;;15.57;4.90;;;13.20;99.90;;;;;;4942970;29;20047;-89
2022/08/02 03:57:06;;;;;;;9.52;4.30;;;13.20;99.90;;;;;;4958109;29;20043;-92
2022/08/02 03:59:44;;;;;;;5.88;3.75;;;13.20;99.90;;;;;;4957255;29;20043;-86
2022/08/02 04:02:13;;;;;;;10.25;4.50;;;13.20;99.90;;;;;;4957457;29;20126;-86
2022/08/02 04:04:39;;;;;;;13.52;4.90;;;13.20;99.90;;;;;;4958214;29;20047;-88
2022/08/02 04:07:05;;;;;;;15.52;4.43;;;13.20;99.90;;;;;;4958695;29;20502;-84
2022/08/02 04:09:30;;;;;;;11.20;4.40;;;13.20;99.90;;;;;;4942406;28;20043;-92
2022/08/02 04:11:56;;;;;;;12.05;4.80;;;13.20;99.90;;;;;;4965666;29;20046;-88
2022/08/02 04:14:22;;;;;;;10.45;4.47;;;13.20;99.90;;;;;;4975734;28;20039;-88
2022/08/02 04:16:54;;;;;;;12.13;4.43;;;13.20;99.90;;;;;;4973924;28;20043;-87
2022/08/02 04:19:47;;;;;;;13.75;4.75;;;13.20;99.90;;;;;;4978423;28;20027;-87
2022/08/02 04:22:23;;;;;;;15.75;5.53;;;13.10;99.90;;;;;;4974266;28;20099;-89
2022/08/02 04:24:54;;;;;;;10.90;4.95;;;13.20;99.90;;;;;;4944986;29;20102;-88
2022/08/02 04:27:22;;;;;;;10.82;4.45;;;13.20;99.90;;;;;;4959792;29;20046;-89
2022/08/02 04:29:49;;;;;;;12.70;4.57;;;13.20;99.90;;;;;;4960204;29;20039;-90
2022/08/02 04:32:16;;;;;;;12.73;5.28;;;13.20;99.90;;;;;;4957814;29;20043;-88
2022/08/02 04:34:45;;;;;;;12.55;4.95;;;13.20;99.90;;;;;;4959479;29;20098;-90
2022/08/02 04:37:12;;;;;;;11.43;4.70;;;13.20;99.90;;;;;;4941442;29;20043;-88
2022/08/02 04:39:41;;;;;;;11.88;4.60;;;13.20;99.90;;;;;;4960372;28;20035;-92
2022/08/02 04:42:07;;;;;;;11.27;4.75;;;13.20;99.90;;;;;;4957616;29;20435;-89
2022/08/02 04:44:33;;;;;;;13.05;4.70;;;13.20;99.90;;;;;;4958145;29;20097;-88
2022/08/02 04:47:01;;;;;;;12.60;5.18;;;13.30;99.90;;;;;;4959919;28;20043;-83
2022/08/02 04:49:28;;;;;;;12.38;5.85;;;13.30;99.90;;;;;;4957058;29;20408;-89
2022/08/02 04:51:54;;;;;;;8.98;4.68;;;13.30;99.90;;;;;;4959990;29;20102;-88
2022/08/02 04:54:19;;;;;;;9.07;4.70;;;13.30;99.90;;;;;;4957200;29;20043;-85
2022/08/02 04:56:45;;;;;;;8.88;4.40;;;13.30;99.90;;;;;;4943013;29;20055;-85
2022/08/02 04:59:11;;;;;;;15.07;4.53;;;13.30;99.90;;;;;;4958476;28;20053;-93
2022/08/02 05:01:41;;;;;;;9.57;4.63;;;13.30;99.90;;;;;;4961470;28;20051;-90
2022/08/02 05:04:07;;;;;;;12.23;4.93;;;13.40;99.90;;;;;;4961086;29;20031;-90
2022/08/02 05:06:32;;;;;;;8.35;4.75;;;13.40;99.90;;;;;;4961883;29;20062;-86
2022/08/02 05:08:58;;;;;;;9.15;4.63;;;13.40;99.90;;;;;;4961814;29;20098;-91
2022/08/02 05:11:24;;;;;;;12.18;4.80;;;13.50;99.90;;;;;;4944321;28;20043;-90
2022/08/02 05:13:50;;;;;;;13.80;5.00;;;13.50;99.90;;;;;;4961329;28;20066;-88
2022/08/02 05:16:16;;;;;;;11.52;5.30;;;13.50;99.90;;;;;;4960192;28;20475;-90
2022/08/02 05:18:42;;;;;;;8.07;4.10;;;13.60;99.90;;;;;;4961311;29;20054;-92
2022/08/02 05:29:29;;;;;;;10.35;4.65;;;13.70;99.90;;;;;;4959553;29;19929;-92
2022/08/02 05:31:54;;;;;;;10.05;4.13;;;13.70;99.90;;;;;;5087878;23;20109;-85
2022/08/02 05:34:20;;;;;;;9.35;4.47;;;13.80;99.90;;;;;;4962422;28;20398;-89
2022/08/02 05:36:46;;;;;;;8.88;3.85;;;13.80;99.90;;;;;;4979550;28;20442;-88
2022/08/02 05:39:11;;;;;;;11.40;4.20;;;13.80;99.90;;;;;;4979034;28;20463;-86
2022/08/02 05:41:37;;;;;;;9.95;3.83;;;13.90;99.90;;;;;;4979556;28;20498;-89
2022/08/02 05:44:03;;;;;;;8.23;3.85;;;14.00;99.90;;;;;;4961718;28;20051;-88
2022/08/02 05:46:29;;;;;;;15.43;5.55;;;14.00;99.90;;;;;;4980045;28;20399;-86
2022/08/02 05:48:54;;;;;;;11.10;4.43;;;14.10;99.90;;;;;;4981331;28;20031;-89
2022/08/02 05:51:28;;;;;;;7.75;3.92;;;14.10;99.90;;;;;;4980906;28;20035;-86
2022/08/02 05:54:25;;;;;;;9.88;4.72;;;14.20;99.90;;;;;;4979780;28;20047;-85
2022/08/02 05:56:58;;;;;;;8.57;4.03;;;14.30;99.90;;;;;;4978413;28;20051;-89
2022/08/02 05:59:51;;;;;;;10.90;4.55;;;14.30;99.90;;;;;;4979006;28;20105;-84
2022/08/02 06:02:50;;;;;;;8.38;4.05;;;14.40;99.90;;;;;;4963377;28;20050;-90
2022/08/02 06:05:19;;;;;;;10.88;4.05;;;14.50;99.90;;;;;;4982635;28;20051;-90
2022/08/02 06:07:46;;;;;;;8.68;3.85;;;14.60;99.90;;;;;;4964278;28;20034;-89
2022/08/02 06:10:14;;;;;;;9.60;4.15;;;14.70;99.90;;;;;;4981785;28;20117;-90
2022/08/02 06:13:27;;;;;;;;;;;;;;;;;;;;;
2022/08/02 06:16:25;;;;;;;11.82;4.53;;;14.80;99.90;;;;;;4982801;28;20065;-92
2022/08/02 06:19:08;;;;;;;13.88;5.00;;;15.00;99.90;;;;;;4978790;28;20490;-92
2022/08/02 06:21:35;;;;;;;7.80;3.95;;;15.10;99.90;;;;;;4963870;28;20055;-89
2022/08/02 06:24:11;;;;;;;11.27;3.72;;;15.10;99.90;;;;;;4961354;28;20054;-90
2022/08/02 06:26:38;;;;;;;9.80;4.05;;;15.30;99.90;;;;;;4964818;28;20059;-89
2022/08/02 06:29:20;;;;;;;6.75;3.47;;;15.30;99.90;;;;;;4946571;28;20549;-92
2022/08/02 06:31:52;;;;;;;13.15;3.95;;;15.40;99.90;;;;;;4947673;28;20057;-93
2022/08/02 06:34:17;;;;;;;12.85;4.60;;;15.50;99.90;;;;;;4947776;28;20081;-91
2022/08/02 06:37:11;;;;;;;9.98;4.05;;;15.60;99.90;;;;;;4946937;28;20063;-90
2022/08/02 06:40:08;;;;;;;14.82;4.35;;;15.60;99.90;;;;;;4965993;28;20058;-91
2022/08/02 06:43:16;;;;;;;;;;;;;;;;;;;;;
2022/08/02 06:46:16;;;;;;;15.82;4.30;;;15.80;99.90;;;;;;4982804;28;20038;-90
2022/08/02 06:48:42;;;;;;;7.13;3.20;;;15.90;99.90;;;;;;4948842;28;20085;-87
2022/08/02 06:51:08;;;;;;;6.55;3.28;;;16.00;99.90;;;;;;4975352;28;20445;-78
2022/08/02 06:53:34;;;;;;;8.73;3.22;;;16.10;99.90;;;;;;4976500;28;20081;-81
2022/08/02 06:56:00;;;;;;;9.27;3.22;;;16.10;99.90;;;;;;4977914;28;20034;-85
2022/08/02 06:58:25;;;;;;;9.20;3.03;;;16.20;99.90;;;;;;4976133;28;20487;-85
2022/08/02 07:00:51;;;;;;;9.50;3.10;;;16.30;99.90;;;;;;4961901;28;20050;-83
2022/08/02 07:03:17;;;;;;;6.90;2.95;;;16.40;99.90;;;;;;4960746;28;20046;-88
2022/08/02 07:05:47;;;;;;;9.50;3.35;;;16.50;99.90;;;;;;4979182;28;20427;-87
2022/08/02 07:08:14;;;;;;;10.30;2.95;;;16.60;99.90;;;;;;4979591;28;20043;-88
2022/08/02 07:10:40;;;;;;;6.72;2.75;;;16.60;99.90;;;;;;4977720;28;20030;-83
2022/08/02 07:13:05;;;;;;;7.47;2.80;;;16.70;99.90;;;;;;4975948;28;20050;-85
2022/08/02 07:19:25;;;;;;;8.95;2.88;;;16.70;99.90;;;;;;4979616;28;20063;-87
2022/08/02 07:21:54;;;;;;;7.22;2.42;;;16.90;99.90;;;;;;4959437;28;20519;-88
2022/08/02 07:24:25;;;;;;;7.68;2.65;;;16.90;99.90;;;;;;4962326;28;20061;-89
2022/08/02 07:31:22;;;;;;;;;;;;;;;;;;;;;
2022/08/02 07:38:27;;;;;;;;;;;;;;;;;;;;;
2022/08/02 07:40:53;;;;;;;5.20;2.03;;;17.60;99.90;;;;;;4958615;28;20105;-81
2022/08/02 07:43:19;;;;;;;8.00;2.33;;;17.80;99.90;;;;;;4959641;28;20046;-86
2022/08/02 07:45:45;;;;;;;6.10;2.15;;;17.80;99.90;;;;;;4963330;28;20074;-88
2022/08/02 07:48:18;;;;;;;10.70;2.58;;;17.90;99.90;;;;;;4978842;28;20081;-90
2022/08/02 07:53:29;;;;;;;;;;;;;;;;;;;;;
2022/08/02 07:56:26;;;;;;;;;;;;;;;;;;;;;
2022/08/02 07:59:17;;;;;;;7.75;2.47;;;18.40;99.90;;;;;;4919139;29;20080;-89
2022/08/02 08:01:43;;;;;;;6.15;2.45;;;18.50;99.90;;;;;;4942646;28;20059;-88
2022/08/02 08:04:19;;;;;;;8.13;2.60;;;18.50;99.90;;;;;;4956464;29;20102;-88
2022/08/02 08:06:50;;;;;;;7.10;2.38;;;18.60;99.90;;;;;;4940071;29;20047;-87
2022/08/02 08:09:16;;;;;;;6.65;2.08;;;18.80;99.90;;;;;;4939792;29;20050;-87
2022/08/02 08:11:48;;;;;;;7.57;2.13;;;19.00;99.90;;;;;;4939321;29;20039;-88
2022/08/02 08:14:14;;;;;;;7.90;2.20;;;19.10;99.90;;;;;;4956911;29;20054;-87
2022/08/02 08:16:40;;;;;;;6.35;2.28;;;19.10;99.90;;;;;;4939709;29;20054;-88
2022/08/02 08:19:05;;;;;;;7.97;2.60;;;19.20;99.90;;;;;;4956744;29;20126;-88
2022/08/02 08:21:33;;;;;;;5.65;2.33;;;19.30;99.90;;;;;;4940779;29;20047;-87
2022/08/02 08:23:59;;;;;;;8.68;2.10;;;19.40;99.90;;;;;;4956552;28;20102;-87
2022/08/02 08:26:25;;;;;;;7.72;1.85;;;19.40;99.90;;;;;;4939217;29;20475;-87
2022/08/02 08:28:51;;;;;;;6.45;1.75;;;19.60;99.90;;;;;;4938699;29;20047;-88
2022/08/02 08:31:17;;;;;;;5.15;1.85;;;19.60;99.90;;;;;;4955596;28;20099;-87
2022/08/02 08:33:43;;;;;;;6.55;1.80;;;19.70;99.90;;;;;;4956676;28;20126;-86
2022/08/02 08:36:15;;;;;;;8.43;2.38;;;19.80;99.90;;;;;;4961069;29;20075;-89
2022/08/02 08:38:41;;;;;;;7.65;2.17;;;19.90;99.90;;;;;;4948385;29;20126;-87
2022/08/02 08:41:06;;;;;;;6.80;2.60;;;20.00;99.90;;;;;;4961514;28;20086;-89
2022/08/02 08:43:44;;;;;;;6.13;2.17;;;20.20;99.90;;;;;;4964353;29;20043;-92
2022/08/02 08:46:35;;;;;;;5.00;2.50;;;20.20;99.90;;;;;;4942108;29;20043;-90
2022/08/02 08:49:13;;;;;;;5.78;2.13;;;20.30;99.90;;;;;;4911732;29;20051;-87
2022/08/02 08:51:55;;;;;;;7.50;2.15;;;20.40;99.90;;;;;;4925881;29;20166;-90
2022/08/02 08:54:26;;;;;;;7.22;2.38;;;20.50;99.90;;;;;;4925181;29;20047;-89
2022/08/02 08:57:05;;;;;;;6.28;2.72;;;20.60;99.90;;;;;;4926490;29;20067;-89
2022/08/02 08:59:33;;;;;;;4.25;2.20;;;20.70;99.90;;;;;;4926004;29;20044;-89
2022/08/02 09:02:15;;;;;;;3.92;2.20;;;20.90;99.90;;;;;;4912328;29;20083;-91
2022/08/02 09:04:40;;;;;;;5.78;2.70;;;21.00;99.90;;;;;;4944797;29;20058;-88
2022/08/02 09:07:35;;;;;;;6.30;2.88;;;21.10;99.90;;;;;;4913252;29;20471;-87
2022/08/02 09:12:43;;;;;;;7.93;2.70;;;21.40;99.90;;;;;;5008274;23;20447;-86
2022/08/02 09:15:10;;;;;;;8.90;2.88;;;21.50;99.90;;;;;;4979133;28;20074;-86
2022/08/02 09:17:49;;;;;;;7.75;2.92;;;21.60;99.90;;;;;;4981592;28;20058;-89
2022/08/02 09:20:21;;;;;;;8.02;2.88;;;21.70;99.90;;;;;;4979395;28;20114;-87
2022/08/02 09:23:09;;;;;;;10.18;3.05;;;21.80;99.90;;;;;;4963572;28;20049;-86
2022/08/02 09:25:38;;;;;;;;;;;21.90;99.90;;;;;;4983050;28;20105;-90
2022/08/02 09:28:04;;;;;;;10.20;3.65;;;22.00;99.90;;;;;;4979722;28;19941;-87
2022/08/02 09:31:08;;;;;;;7.53;3.50;;;22.20;99.90;;;;;;4980612;28;20043;-88
2022/08/02 09:33:49;;;;;;;5.50;3.13;;;22.30;99.90;;;;;;4907467;29;20051;-90
2022/08/02 09:36:52;;;;;;;7.50;2.78;;;22.40;99.90;;;;;;4942098;29;20123;-91
2022/08/02 09:39:47;;;;;;;7.53;3.42;;;22.50;99.90;;;;;;4906477;29;20477;-89
2022/08/02 09:42:19;;;;;;;7.28;2.80;;;22.60;99.90;;;;;;4916786;29;20103;-90
2022/08/02 09:45:01;;;;;;;6.82;2.85;;;22.70;99.90;;;;;;4923721;29;20048;-88
2022/08/02 09:47:28;;;;;;;5.75;2.88;;;22.70;99.90;;;;;;4922501;29;20588;-87
2022/08/02 09:50:06;;;;;;;5.90;2.60;;;22.80;99.90;;;;;;4908685;29;20513;-91
2022/08/02 09:52:31;;;;;;;7.47;3.50;;;22.80;99.90;;;;;;4907239;29;20057;-88
2022/08/02 09:55:07;;;;;;;8.50;3.63;;;22.80;99.90;;;;;;4907603;29;20048;-88
2022/08/02 09:57:36;;;;;;;8.77;3.67;;;22.90;99.90;;;;;;4939953;28;20054;-86
2022/08/02 10:00:09;;;;;;;6.15;2.92;;;22.90;99.90;;;;;;4978387;28;20403;-88
2022/08/02 10:02:34;;;;;;;10.10;3.83;;;23.00;99.90;;;;;;4984660;28;20090;-87
2022/08/02 10:06:00;;;;;;;11.00;3.83;;;23.10;99.90;;;;;;4993518;28;20054;-93
2022/08/02 10:08:30;;;;;;;8.27;2.95;;;23.20;99.90;;;;;;4989527;28;20047;-88
2022/08/02 10:11:00;;;;;;;7.15;3.72;;;23.30;99.90;;;;;;4990071;28;20042;-85
2022/08/02 10:13:34;;;;;;;6.18;2.90;;;23.40;99.90;;;;;;4997922;28;20074;-81
2022/08/02 10:16:01;;;;;;;4.85;2.83;;;23.50;99.90;;;;;;4982556;28;20057;-85
2022/08/02 10:18:28;;;;;;;10.10;3.17;;;23.70;99.90;;;;;;4980408;28;20497;-82
2022/08/02 10:20:55;;;;;;;6.65;3.38;;;23.70;99.90;;;;;;4978443;28;20046;-89
2022/08/02 10:23:42;;;;;;;7.35;3.03;;;23.80;99.90;;;;;;4977859;28;20168;-91
2022/08/02 10:26:11;;;;;;;5.22;2.60;;;23.90;99.90;;;;;;4979069;28;20269;-86
2022/08/02 10:28:37;;;;;;;6.55;3.10;;;24.00;99.90;;;;;;4977679;28;20093;-88
2022/08/02 10:31:06;;;;;;;4.72;2.60;;;24.10;99.90;;;;;;4963905;28;20057;-87
2022/08/02 10:33:37;;;;;;;4.40;2.50;;;24.20;99.90;;;;;;4979341;28;20082;-91
2022/08/02 10:36:05;;;;;;;3.75;2.40;;;24.20;99.90;;;;;;4978787;28;20051;-88
2022/08/02 10:38:32;;;;;;;4.85;2.22;;;24.20;99.90;;;;;;4987416;28;20126;-85
2022/08/02 10:40:58;;;;;;;5.53;2.78;;;24.10;99.90;;;;;;4980884;28;20139;-85
2022/08/02 10:43:30;;;;;;;5.10;2.95;;;24.30;99.90;;;;;;4977624;28;20126;-86
2022/08/02 10:46:20;;;;;;;4.28;2.67;;;24.30;99.90;;;;;;4976281;28;20387;-85
2022/08/02 10:49:19;;;;;;;6.05;3.35;;;24.30;99.90;;;;;;4957198;28;20047;-83
2022/08/02 10:51:54;;;;;;;5.47;3.75;;;24.40;99.90;;;;;;4951410;28;20051;-88
2022/08/02 10:54:38;;;;;;;;;;;;;;;;;;;;;
2022/08/02 10:57:24;;;;;;;5.70;3.00;;;24.40;99.90;;;;;;4932007;29;20110;-84
2022/08/02 11:00:01;;;;;;;7.05;3.88;;;24.30;99.90;;;;;;4963741;28;20122;-83
2022/08/02 11:03:33;;;;;;;6.22;3.67;;;24.30;99.90;;;;;;4966347;29;20398;-93
2022/08/02 11:07:01;;;;;;;8.55;4.68;;;24.40;99.90;;;;;;4929888;29;20107;-94
2022/08/02 11:09:55;;;;;;;;;;;;;;;;;;;;;
2022/08/02 11:13:18;;;;;;;9.38;4.97;;;24.50;99.90;;;;;;5106262;23;20079;-89
2022/08/02 11:16:16;;;;;;;12.50;6.40;;;24.30;99.90;;;;;;4945180;29;20126;-90
2022/08/02 11:19:41;;;;;;;13.20;6.43;;;24.30;99.90;;;;;;4949744;29;20058;-89
2022/08/02 11:22:18;;;;;;;13.45;6.63;;;24.20;99.90;;;;;;4945943;29;20050;-87
2022/08/02 11:25:22;;;;;;;9.90;6.55;;;24.20;99.90;;;;;;4944008;29;20499;-90
2022/08/02 11:28:10;;;;;;;12.40;6.88;;;24.10;99.90;;;;;;4959486;29;20059;-93
2022/08/02 11:31:14;;;;;;;13.25;7.82;;;24.20;99.90;;;;;;4981111;23;20050;-87
2022/08/02 11:34:34;;;;;;;10.63;6.65;;;24.30;99.90;;;;;;4988291;28;20062;-93
2022/08/02 11:37:25;;;;;;;10.45;7.30;;;24.50;99.90;;;;;;4932193;29;20062;-90
2022/08/02 11:40:14;;;;;;;9.50;7.07;;;24.50;99.90;;;;;;4968708;28;20514;-91
2022/08/02 11:43:02;;;;;;;8.63;5.85;;;24.40;99.90;;;;;;4954822;29;20039;-92
2022/08/02 11:45:36;;;;;;;10.63;5.07;;;24.40;99.90;;;;;;4954906;29;20054;-89
2022/08/02 11:48:15;;;;;;;10.23;5.70;;;24.30;99.90;;;;;;4965375;28;20070;-88
2022/08/02 11:51:14;;;;;;;8.43;5.90;;;24.40;99.90;;;;;;4896150;29;20092;-91
2022/08/02 11:53:59;;;;;;;10.60;5.25;;;24.50;99.90;;;;;;4895546;29;20432;-88
2022/08/02 11:56:37;;;;;;;9.50;5.60;;;24.50;99.90;;;;;;4881980;29;20056;-91
2022/08/02 11:59:27;;;;;;;13.43;5.80;;;24.50;99.90;;;;;;4893773;29;20442;-91
2022/08/02 12:01:55;;;;;;;13.13;6.57;;;24.50;99.90;;;;;;4867046;29;20400;-84
2022/08/02 12:04:21;;;;;;;9.90;5.50;;;24.50;99.90;;;;;;4909058;29;20149;-87
2022/08/02 12:06:55;;;;;;;10.13;5.95;;;24.60;99.90;;;;;;4941804;29;20076;-87
2022/08/02 12:09:21;;;;;;;8.23;4.80;;;24.70;99.90;;;;;;4923628;29;20048;-90
2022/08/02 12:11:51;;;;;;;13.35;6.35;;;24.90;99.90;;;;;;4940303;29;20059;-86
2022/08/02 12:14:17;;;;;;;10.27;5.60;;;25.10;99.90;;;;;;4905002;29;20139;-86
2022/08/02 12:19:28;;;;;;;7.90;5.20;;;24.80;99.90;;;;;;4958849;28;20043;-86
2022/08/02 12:22:12;;;;;;;8.82;5.78;;;24.70;99.90;;;;;;4956858;28;20772;-91
2022/08/02 12:24:39;;;;;;;9.63;5.40;;;24.60;99.90;;;;;;4958207;29;20047;-83
2022/08/02 12:27:08;;;;;;;8.88;4.90;;;24.40;99.90;;;;;;4956020;29;20044;-91
2022/08/02 12:29:39;;;;;;;6.57;4.38;;;24.30;99.90;;;;;;4942202;29;20047;-86
2022/08/02 12:32:05;;;;;;;11.55;4.45;;;24.30;99.90;;;;;;4958220;28;20126;-90
2022/08/02 12:34:33;;;;;;;8.27;3.90;;;24.10;99.90;;;;;;4958319;28;20038;-90
2022/08/02 12:37:09;;;;;;;5.32;3.65;;;24.10;99.90;;;;;;4957027;28;20056;-88
2022/08/02 12:39:37;;;;;;;6.45;4.10;;;24.10;99.90;;;;;;4957884;29;20175;-87
2022/08/02 12:42:05;;;;;;;5.85;3.60;;;24.10;99.90;;;;;;4957556;28;20158;-89
2022/08/02 12:44:31;;;;;;;5.30;3.78;;;24.00;99.90;;;;;;4957350;28;20055;-86
2022/08/02 12:47:06;;;;;;;8.05;3.70;;;24.00;99.90;;;;;;4940509;29;20141;-87
2022/08/02 12:49:32;;;;;;;8.43;4.50;;;24.10;99.90;;;;;;4958481;28;20047;-86
2022/08/02 12:51:59;;;;;;;7.63;4.82;;;24.00;99.90;;;;;;4956460;28;20054;-87
2022/08/02 12:54:38;;;;;;;10.60;5.03;;;24.00;99.90;;;;;;4956823;29;20428;-90
2022/08/02 12:57:12;;;;;;;8.35;5.32;;;24.10;99.90;;;;;;4958379;29;20062;-89
2022/08/02 12:59:40;;;;;;;10.75;5.80;;;24.10;99.90;;;;;;4940375;29;20087;-86
2022/08/02 13:02:09;;;;;;;8.57;5.07;;;24.10;99.90;;;;;;4955684;28;20090;-85
2022/08/02 13:04:34;;;;;;;10.27;6.10;;;24.20;99.90;;;;;;4940623;29;20043;-87
2022/08/02 13:07:01;;;;;;;10.68;6.45;;;24.30;99.90;;;;;;4956929;28;20050;-86
2022/08/02 13:09:27;;;;;;;11.82;6.43;;;24.30;99.90;;;;;;4959160;28;20043;-86
2022/08/02 13:11:52;;;;;;;9.63;5.30;;;24.30;99.90;;;;;;4959853;28;20035;-90
2022/08/02 13:14:18;;;;;;;9.70;5.47;;;24.30;99.90;;;;;;4958708;28;20113;-90
2022/08/02 13:16:45;;;;;;;11.20;6.05;;;24.40;99.90;;;;;;4960475;29;20043;-88
2022/08/02 13:19:13;;;;;;;8.95;5.50;;;24.30;99.90;;;;;;4941407;29;20134;-89
2022/08/02 13:21:39;;;;;;;9.15;5.65;;;24.30;99.90;;;;;;4961672;28;20046;-88
2022/08/02 13:24:05;;;;;;;8.43;5.90;;;24.30;99.90;;;;;;4961736;29;20075;-90
2022/08/02 13:26:31;;;;;;;7.93;5.57;;;24.20;99.90;;;;;;4962107;29;20043;-87
2022/08/02 13:28:57;;;;;;;9.80;5.38;;;24.10;99.90;;;;;;4961159;29;20121;-85
2022/08/02 13:31:23;;;;;;;7.68;5.68;;;24.10;99.90;;;;;;4960929;28;20491;-90
2022/08/02 13:33:48;;;;;;;11.70;5.63;;;24.10;99.90;;;;;;4961470;28;20053;-86
2022/08/02 13:36:14;;;;;;;7.43;5.00;;;24.10;99.90;;;;;;4962452;28;20043;-90
2022/08/02 13:38:40;;;;;;;6.90;5.05;;;24.00;99.90;;;;;;4945006;29;20082;-85
2022/08/02 13:41:08;;;;;;;8.00;5.00;;;24.10;99.90;;;;;;4963858;28;20039;-89
2022/08/02 13:43:37;;;;;;;7.63;5.13;;;24.10;99.90;;;;;;4961616;29;20130;-88
2022/08/02 13:46:04;;;;;;;9.13;4.65;;;24.10;99.90;;;;;;4963456;29;20051;-89
2022/08/02 13:48:30;;;;;;;9.05;5.00;;;24.10;99.90;;;;;;4947905;29;20050;-88
2022/08/02 13:50:56;;;;;;;8.10;5.07;;;24.00;99.90;;;;;;4961741;28;20423;-90
2022/08/02 13:53:22;;;;;;;7.25;5.10;;;24.10;99.90;;;;;;4947122;29;20043;-89
2022/08/02 13:56:02;;;;;;;6.47;4.63;;;24.20;99.90;;;;;;4948570;28;20070;-92
2022/08/02 13:58:27;;;;;;;8.77;5.13;;;24.30;99.90;;;;;;4963412;28;20043;-87
2022/08/02 14:00:53;;;;;;;7.00;4.88;;;24.50;99.90;;;;;;4962256;28;20043;-89
2022/08/02 14:03:18;;;;;;;8.63;5.13;;;24.70;99.90;;;;;;4958879;29;20051;-88
2022/08/02 14:05:44;;;;;;;10.10;5.60;;;24.70;99.90;;;;;;4991353;28;20040;-86
2022/08/02 14:08:10;;;;;;;9.25;5.10;;;24.80;99.90;;;;;;4958675;29;20047;-85
2022/08/02 14:10:36;;;;;;;8.38;5.22;;;24.90;99.90;;;;;;4957230;29;20426;-84
2022/08/02 14:13:01;;;;;;;8.70;5.45;;;24.80;99.90;;;;;;4956965;29;20043;-85
2022/08/02 14:15:27;;;;;;;8.00;5.07;;;24.70;99.90;;;;;;4957158;29;20043;-88
2022/08/02 14:17:52;;;;;;;9.15;6.28;;;24.70;99.90;;;;;;4957092;29;20106;-83
2022/08/02 14:20:18;;;;;;;7.05;5.18;;;24.70;99.90;;;;;;4956687;29;20070;-86
2022/08/02 14:22:44;;;;;;;8.45;4.85;;;24.70;99.90;;;;;;4957784;28;20039;-86
2022/08/02 14:25:09;;;;;;;6.25;4.60;;;24.70;99.90;;;;;;4957813;29;20036;-83
2022/08/02 14:27:35;;;;;;;9.27;4.88;;;24.70;99.90;;;;;;4940258;29;20047;-84
2022/08/02 14:30:01;;;;;;;12.70;4.57;;;24.70;99.90;;;;;;4956618;29;20054;-86
2022/08/02 14:32:27;;;;;;;5.78;4.10;;;24.70;99.90;;;;;;4955231;28;20075;-85
2022/08/02 14:34:53;;;;;;;7.20;4.57;;;24.70;99.90;;;;;;4956391;29;20051;-83
2022/08/02 14:37:18;;;;;;;10.73;4.88;;;24.80;99.90;;;;;;4955803;29;20051;-80
2022/08/02 14:39:44;;;;;;;6.45;4.63;;;24.80;99.90;;;;;;4957463;28;20094;-79
2022/08/02 14:42:10;;;;;;;7.30;5.07;;;24.80;99.90;;;;;;4957273;28;20055;-82
2022/08/02 14:44:36;;;;;;;8.85;4.78;;;24.80;99.90;;;;;;4955903;28;20047;-81
2022/08/02 14:47:01;;;;;;;8.20;4.82;;;24.90;99.90;;;;;;4957264;28;20035;-81
2022/08/02 14:49:27;;;;;;;10.18;4.50;;;25.00;99.90;;;;;;4956812;28;20043;-81
2022/08/02 14:51:54;;;;;;;8.05;4.55;;;25.10;99.90;;;;;;4955501;29;20039;-81
2022/08/02 14:54:19;;;;;;;8.98;4.97;;;25.30;99.90;;;;;;4955815;29;20447;-83
2022/08/02 14:56:45;;;;;;;6.72;4.50;;;25.40;99.90;;;;;;4957236;28;20035;-83
2022/08/02 14:59:11;;;;;;;6.32;3.80;;;25.40;99.90;;;;;;4955645;29;20479;-78
2022/08/02 15:01:36;;;;;;;7.32;4.03;;;25.60;99.90;;;;;;4955384;29;20043;-80
2022/08/02 15:04:02;;;;;;;7.47;4.05;;;25.70;99.90;;;;;;4955594;28;20043;-81
2022/08/02 15:06:31;;;;;;;6.55;3.97;;;25.80;99.90;;;;;;4955796;28;20057;-80
2022/08/02 15:08:58;;;;;;;9.63;4.70;;;25.70;99.90;;;;;;4955228;29;20047;-80
2022/08/02 15:11:24;;;;;;;7.97;4.30;;;25.70;99.90;;;;;;4956577;28;20031;-79
2022/08/02 15:13:49;;;;;;;10.88;3.70;;;25.80;99.90;;;;;;4955425;29;20101;-83
2022/08/02 15:16:15;;;;;;;9.43;4.53;;;25.90;99.90;;;;;;4956390;29;20495;-80
2022/08/02 15:18:40;;;;;;;9.45;4.55;;;25.90;99.90;;;;;;4956197;29;20057;-81
2022/08/02 15:21:06;;;;;;;9.90;4.53;;;26.00;99.90;;;;;;4955148;29;20054;-82
2022/08/02 15:23:32;;;;;;;6.13;4.25;;;26.20;99.90;;;;;;4955084;29;20078;-82
2022/08/02 15:25:57;;;;;;;8.57;3.58;;;26.20;99.90;;;;;;4938978;29;20039;-82
2022/08/02 15:28:23;;;;;;;7.55;4.15;;;26.30;99.90;;;;;;4955674;29;20086;-82
2022/08/02 15:30:49;;;;;;;11.18;4.07;;;26.30;99.90;;;;;;4955900;29;20479;-81
2022/08/02 15:33:15;;;;;;;5.15;3.28;;;26.30;99.90;;;;;;4956607;29;20039;-81
2022/08/02 15:35:40;;;;;;;5.47;3.40;;;26.30;99.90;;;;;;4955008;29;20059;-81
2022/08/02 15:38:07;;;;;;;10.82;3.85;;;26.30;99.90;;;;;;4956289;28;20050;-82
2022/08/02 15:40:32;;;;;;;8.35;3.22;;;26.40;99.90;;;;;;4955550;29;20054;-82
2022/08/02 15:42:58;;;;;;;7.68;3.30;;;26.40;99.90;;;;;;4955477;28;20045;-81
2022/08/02 15:45:26;;;;;;;7.93;4.38;;;26.30;99.90;;;;;;4986925;28;20498;-81
2022/08/02 15:47:52;;;;;;;9.30;3.72;;;26.20;99.90;;;;;;4955768;29;20372;-82
2022/08/02 15:50:17;;;;;;;7.82;3.63;;;26.30;99.90;;;;;;4955948;29;20054;-82
2022/08/02 15:52:43;;;;;;;12.10;3.65;;;26.30;99.90;;;;;;4955917;29;20400;-84
2022/08/02 15:55:09;;;;;;;5.80;3.08;;;26.30;99.90;;;;;;4955394;28;20070;-83
2022/08/02 15:57:35;;;;;;;8.57;3.85;;;26.40;99.90;;;;;;4954639;29;20389;-81
2022/08/02 16:00:00;;;;;;;8.27;3.60;;;26.40;99.90;;;;;;4956159;28;20471;-81
2022/08/02 16:02:26;;;;;;;5.55;3.08;;;26.20;99.90;;;;;;4954361;29;20050;-82
2022/08/02 16:04:52;;;;;;;6.10;3.45;;;26.30;99.90;;;;;;4955514;29;20126;-81
2022/08/02 16:07:18;;;;;;;7.38;3.25;;;26.30;99.90;;;;;;4954259;29;20055;-80
2022/08/02 16:09:43;;;;;;;7.05;2.65;;;26.30;99.90;;;;;;4955910;28;20402;-83
2022/08/02 16:12:09;;;;;;;7.70;3.00;;;26.40;99.90;;;;;;4955290;29;20035;-83
2022/08/02 16:14:35;;;;;;;6.40;3.15;;;26.40;99.90;;;;;;4954195;29;20554;-81
2022/08/02 16:17:00;;;;;;;6.45;3.10;;;26.40;99.90;;;;;;4955733;28;20090;-82
2022/08/02 16:19:26;;;;;;;7.10;3.05;;;26.30;99.90;;;;;;4955292;28;20039;-83
2022/08/02 16:21:53;;;;;;;7.75;3.13;;;26.20;99.90;;;;;;4954190;29;20062;-81
2022/08/02 16:24:19;;;;;;;7.00;2.78;;;26.20;99.90;;;;;;4954029;29;20051;-80
2022/08/02 16:26:45;;;;;;;6.90;3.20;;;26.20;99.90;;;;;;4955548;28;20368;-81
2022/08/02 16:29:10;;;;;;;6.97;3.28;;;26.10;99.90;;;;;;4954256;29;20047;-81
2022/08/02 16:31:36;;;;;;;6.28;3.05;;;26.20;99.90;;;;;;4955302;28;20041;-80
2022/08/02 16:34:02;;;;;;;9.25;3.00;;;26.10;99.90;;;;;;4956359;28;20042;-83
2022/08/02 16:36:28;;;;;;;5.55;3.10;;;26.20;99.90;;;;;;4954056;29;20050;-81
2022/08/02 16:38:54;;;;;;;5.57;2.55;;;26.10;99.90;;;;;;4955225;28;20035;-81
2022/08/02 16:41:20;;;;;;;6.20;2.30;;;26.20;99.90;;;;;;4937918;29;20506;-81
2022/08/02 16:43:46;;;;;;;4.00;2.15;;;26.20;99.90;;;;;;4954038;29;20078;-82
2022/08/02 16:46:12;;;;;;;8.65;2.50;;;26.20;99.90;;;;;;4955351;28;20087;-81
2022/08/02 16:48:38;;;;;;;6.78;3.00;;;26.20;99.90;;;;;;4955659;28;20035;-83